sensor_id;sensor_type;location;lat;lon;timestamp;P1;durP1;ratioP1;P2;durP2;ratioP2
82288;SDS011;71889;39.264;-120.910;2024-02-14T00:00:37;5.30;;;2.17;;
82288;SDS011;71889;39.264;-120.910;2024-02-14T00:03:04;3.97;;;1.60;;
82288;SDS011;71889;39.264;-120.910;2024-02-14T00:05:31;3.83;;;1.90;;
82288;SDS011;71889;39.264;-120.910;2024-02-14T00:07:58;3.47;;;2.03;;
82288;SDS011;71889;39.264;-120.910;2024-02-14T00:10:25;2.75;;;1.80;;
82288;SDS011;71889;39.264;-120.910;2024-02-14T00:12:52;3.83;;;2.05;;
82288;SDS011;71889;39.264;-120.910;2024-02-14T00:15:18;2.50;;;1.70;;
82288;SDS011;71889;39.264;-120.910;2024-02-14T00:17:45;3.72;;;1.88;;
82288;SDS011;71889;39.264;-120.910;2024-02-14T00:20:12;3.90;;;1.95;;
82288;SDS011;71889;39.264;-120.910;2024-02-14T00:22:41;3.88;;;1.60;;
82288;SDS011;71889;39.264;-120.910;2024-02-14T00:25:08;4.70;;;2.47;;
82288;SDS011;71889;39.264;-120.910;2024-02-14T00:27:35;4.30;;;1.88;;
82288;SDS011;71889;39.264;-120.910;2024-02-14T00:30:02;3.75;;;2.40;;
82288;SDS011;71889;39.264;-120.910;2024-02-14T00:32:29;4.22;;;3.20;;
82288;SDS011;71889;39.264;-120.910;2024-02-14T00:34:56;3.90;;;2.58;;
82288;SDS011;71889;39.264;-120.910;2024-02-14T00:37:23;5.47;;;2.85;;
82288;SDS011;71889;39.264;-120.910;2024-02-14T00:39:50;7.93;;;2.25;;
82288;SDS011;71889;39.264;-120.910;2024-02-14T00:42:17;5.85;;;2.80;;
82288;SDS011;71889;39.264;-120.910;2024-02-14T00:44:44;3.95;;;1.83;;
82288;SDS011;71889;39.264;-120.910;2024-02-14T00:47:12;4.70;;;1.75;;
82288;SDS011;71889;39.264;-120.910;2024-02-14T00:49:39;5.85;;;3.00;;
82288;SDS011;71889;39.264;-120.910;2024-02-14T00:52:06;14.32;;;6.65;;
82288;SDS011;71889;39.264;-120.910;2024-02-14T00:54:34;15.20;;;6.88;;
82288;SDS011;71889;39.264;-120.910;2024-02-14T00:57:01;9.70;;;4.10;;
82288;SDS011;71889;39.264;-120.910;2024-02-14T00:59:28;7.18;;;3.13;;
82288;SDS011;71889;39.264;-120.910;2024-02-14T01:01:55;15.00;;;4.53;;
82288;SDS011;71889;39.264;-120.910;2024-02-14T01:04:22;7.90;;;2.95;;
82288;SDS011;71889;39.264;-120.910;2024-02-14T01:06:48;4.68;;;2.00;;
82288;SDS011;71889;39.264;-120.910;2024-02-14T01:09:18;3.72;;;2.20;;
82288;SDS011;71889;39.264;-120.910;2024-02-14T01:11:45;5.57;;;2.20;;
82288;SDS011;71889;39.264;-120.910;2024-02-14T01:14:14;5.35;;;2.30;;
82288;SDS011;71889;39.264;-120.910;2024-02-14T01:16:42;5.10;;;2.47;;
82288;SDS011;71889;39.264;-120.910;2024-02-14T01:19:11;8.55;;;3.22;;
82288;SDS011;71889;39.264;-120.910;2024-02-14T01:21:40;10.70;;;4.00;;
82288;SDS011;71889;39.264;-120.910;2024-02-14T01:24:07;63.55;;;21.75;;
82288;SDS011;71889;39.264;-120.910;2024-02-14T01:26:34;60.33;;;20.33;;
82288;SDS011;71889;39.264;-120.910;2024-02-14T01:29:01;71.70;;;24.23;;
82288;SDS011;71889;39.264;-120.910;2024-02-14T01:31:28;82.80;;;25.75;;
82288;SDS011;71889;39.264;-120.910;2024-02-14T01:33:55;9.15;;;4.05;;
82288;SDS011;71889;39.264;-120.910;2024-02-14T01:36:28;5.47;;;2.90;;
82288;SDS011;71889;39.264;-120.910;2024-02-14T01:38:55;5.15;;;2.40;;
82288;SDS011;71889;39.264;-120.910;2024-02-14T01:41:26;7.95;;;4.78;;
82288;SDS011;71889;39.264;-120.910;2024-02-14T01:43:53;12.05;;;7.53;;
82288;SDS011;71889;39.264;-120.910;2024-02-14T01:46:24;6.45;;;4.60;;
82288;SDS011;71889;39.264;-120.910;2024-02-14T01:48:53;5.00;;;3.20;;
82288;SDS011;71889;39.264;-120.910;2024-02-14T01:51:22;3.95;;;2.42;;
82288;SDS011;71889;39.264;-120.910;2024-02-14T01:53:50;10.60;;;5.65;;
82288;SDS011;71889;39.264;-120.910;2024-02-14T01:56:18;11.40;;;6.80;;
82288;SDS011;71889;39.264;-120.910;2024-02-14T01:58:45;10.18;;;4.72;;
82288;SDS011;71889;39.264;-120.910;2024-02-14T02:01:13;11.38;;;5.38;;
82288;SDS011;71889;39.264;-120.910;2024-02-14T02:03:40;10.82;;;4.70;;
82288;SDS011;71889;39.264;-120.910;2024-02-14T02:06:07;12.90;;;5.85;;
82288;SDS011;71889;39.264;-120.910;2024-02-14T02:08:34;27.83;;;10.82;;
82288;SDS011;71889;39.264;-120.910;2024-02-14T02:11:02;23.55;;;10.38;;
82288;SDS011;71889;39.264;-120.910;2024-02-14T02:13:29;24.65;;;8.95;;
82288;SDS011;71889;39.264;-120.910;2024-02-14T02:15:56;19.88;;;8.85;;
82288;SDS011;71889;39.264;-120.910;2024-02-14T02:18:23;27.45;;;9.35;;
82288;SDS011;71889;39.264;-120.910;2024-02-14T02:20:52;34.40;;;12.80;;
82288;SDS011;71889;39.264;-120.910;2024-02-14T02:23:18;56.28;;;19.45;;
82288;SDS011;71889;39.264;-120.910;2024-02-14T02:25:47;34.45;;;12.82;;
82288;SDS011;71889;39.264;-120.910;2024-02-14T02:28:15;22.10;;;10.45;;
82288;SDS011;71889;39.264;-120.910;2024-02-14T02:30:43;28.30;;;10.77;;
82288;SDS011;71889;39.264;-120.910;2024-02-14T02:33:11;31.15;;;12.75;;
82288;SDS011;71889;39.264;-120.910;2024-02-14T02:35:41;54.92;;;22.23;;
82288;SDS011;71889;39.264;-120.910;2024-02-14T02:38:11;77.43;;;30.48;;
82288;SDS011;71889;39.264;-120.910;2024-02-14T02:40:38;91.75;;;35.08;;
82288;SDS011;71889;39.264;-120.910;2024-02-14T02:43:05;124.32;;;44.75;;
82288;SDS011;71889;39.264;-120.910;2024-02-14T02:45:32;111.60;;;45.92;;
82288;SDS011;71889;39.264;-120.910;2024-02-14T02:47:59;84.60;;;36.80;;
82288;SDS011;71889;39.264;-120.910;2024-02-14T02:50:26;75.53;;;32.50;;
82288;SDS011;71889;39.264;-120.910;2024-02-14T02:52:57;52.42;;;25.13;;
82288;SDS011;71889;39.264;-120.910;2024-02-14T02:55:24;32.13;;;16.90;;
82288;SDS011;71889;39.264;-120.910;2024-02-14T02:57:52;34.30;;;16.92;;
82288;SDS011;71889;39.264;-120.910;2024-02-14T03:00:19;69.03;;;27.08;;
82288;SDS011;71889;39.264;-120.910;2024-02-14T03:02:46;46.65;;;17.85;;
82288;SDS011;71889;39.264;-120.910;2024-02-14T03:05:14;93.20;;;35.15;;
82288;SDS011;71889;39.264;-120.910;2024-02-14T03:07:45;169.52;;;62.70;;
82288;SDS011;71889;39.264;-120.910;2024-02-14T03:10:14;114.07;;;44.22;;
82288;SDS011;71889;39.264;-120.910;2024-02-14T03:12:47;192.88;;;69.00;;
82288;SDS011;71889;39.264;-120.910;2024-02-14T03:15:14;60.35;;;22.23;;
82288;SDS011;71889;39.264;-120.910;2024-02-14T03:17:41;38.08;;;15.02;;
82288;SDS011;71889;39.264;-120.910;2024-02-14T03:20:08;20.08;;;8.60;;
82288;SDS011;71889;39.264;-120.910;2024-02-14T03:22:41;13.35;;;6.82;;
82288;SDS011;71889;39.264;-120.910;2024-02-14T03:25:13;12.63;;;6.40;;
82288;SDS011;71889;39.264;-120.910;2024-02-14T03:27:44;10.70;;;5.07;;
82288;SDS011;71889;39.264;-120.910;2024-02-14T03:30:18;8.98;;;4.05;;
82288;SDS011;71889;39.264;-120.910;2024-02-14T03:32:45;7.00;;;3.85;;
82288;SDS011;71889;39.264;-120.910;2024-02-14T03:35:13;7.55;;;3.90;;
82288;SDS011;71889;39.264;-120.910;2024-02-14T03:37:43;9.63;;;4.10;;
82288;SDS011;71889;39.264;-120.910;2024-02-14T03:40:12;9.18;;;5.20;;
82288;SDS011;71889;39.264;-120.910;2024-02-14T03:42:39;7.65;;;4.18;;
82288;SDS011;71889;39.264;-120.910;2024-02-14T03:45:09;18.50;;;6.95;;
82288;SDS011;71889;39.264;-120.910;2024-02-14T03:47:36;14.48;;;5.82;;
82288;SDS011;71889;39.264;-120.910;2024-02-14T03:50:07;17.10;;;8.15;;
82288;SDS011;71889;39.264;-120.910;2024-02-14T03:52:34;24.50;;;11.18;;
82288;SDS011;71889;39.264;-120.910;2024-02-14T03:55:02;29.67;;;12.88;;
82288;SDS011;71889;39.264;-120.910;2024-02-14T03:57:29;32.30;;;12.57;;
82288;SDS011;71889;39.264;-120.910;2024-02-14T03:59:57;21.33;;;9.57;;
82288;SDS011;71889;39.264;-120.910;2024-02-14T04:02:24;26.45;;;13.13;;
82288;SDS011;71889;39.264;-120.910;2024-02-14T04:04:59;14.63;;;7.22;;
82288;SDS011;71889;39.264;-120.910;2024-02-14T04:07:26;18.90;;;7.78;;
82288;SDS011;71889;39.264;-120.910;2024-02-14T04:09:52;32.95;;;15.52;;
82288;SDS011;71889;39.264;-120.910;2024-02-14T04:12:19;35.42;;;13.85;;
82288;SDS011;71889;39.264;-120.910;2024-02-14T04:14:46;35.28;;;14.25;;
82288;SDS011;71889;39.264;-120.910;2024-02-14T04:17:13;44.25;;;16.00;;
82288;SDS011;71889;39.264;-120.910;2024-02-14T04:19:40;58.35;;;21.45;;
82288;SDS011;71889;39.264;-120.910;2024-02-14T04:22:08;65.72;;;24.75;;
82288;SDS011;71889;39.264;-120.910;2024-02-14T04:24:35;70.60;;;26.95;;
82288;SDS011;71889;39.264;-120.910;2024-02-14T04:27:01;67.50;;;27.80;;
82288;SDS011;71889;39.264;-120.910;2024-02-14T04:29:29;40.33;;;16.73;;
82288;SDS011;71889;39.264;-120.910;2024-02-14T04:32:01;47.05;;;20.70;;
82288;SDS011;71889;39.264;-120.910;2024-02-14T04:34:28;56.10;;;22.77;;
82288;SDS011;71889;39.264;-120.910;2024-02-14T04:36:55;66.90;;;29.60;;
82288;SDS011;71889;39.264;-120.910;2024-02-14T04:39:22;55.13;;;24.83;;
82288;SDS011;71889;39.264;-120.910;2024-02-14T04:41:48;42.85;;;17.80;;
82288;SDS011;71889;39.264;-120.910;2024-02-14T04:44:15;41.03;;;14.75;;
82288;SDS011;71889;39.264;-120.910;2024-02-14T04:46:42;49.20;;;18.13;;
82288;SDS011;71889;39.264;-120.910;2024-02-14T04:49:10;57.50;;;24.80;;
82288;SDS011;71889;39.264;-120.910;2024-02-14T04:51:37;51.80;;;23.55;;
82288;SDS011;71889;39.264;-120.910;2024-02-14T04:54:04;39.78;;;17.80;;
82288;SDS011;71889;39.264;-120.910;2024-02-14T04:56:31;42.50;;;18.15;;
82288;SDS011;71889;39.264;-120.910;2024-02-14T04:58:58;22.23;;;9.85;;
82288;SDS011;71889;39.264;-120.910;2024-02-14T05:01:24;18.30;;;8.98;;
82288;SDS011;71889;39.264;-120.910;2024-02-14T05:03:52;19.00;;;8.63;;
82288;SDS011;71889;39.264;-120.910;2024-02-14T05:06:18;25.30;;;11.07;;
82288;SDS011;71889;39.264;-120.910;2024-02-14T05:08:45;26.30;;;11.85;;
82288;SDS011;71889;39.264;-120.910;2024-02-14T05:11:12;17.55;;;8.55;;
82288;SDS011;71889;39.264;-120.910;2024-02-14T05:13:39;13.63;;;7.38;;
82288;SDS011;71889;39.264;-120.910;2024-02-14T05:16:07;11.52;;;5.65;;
82288;SDS011;71889;39.264;-120.910;2024-02-14T05:18:38;12.27;;;6.53;;
82288;SDS011;71889;39.264;-120.910;2024-02-14T05:21:06;19.20;;;10.00;;
82288;SDS011;71889;39.264;-120.910;2024-02-14T05:23:35;20.52;;;11.02;;
82288;SDS011;71889;39.264;-120.910;2024-02-14T05:26:03;18.60;;;10.82;;
82288;SDS011;71889;39.264;-120.910;2024-02-14T05:28:30;26.00;;;13.57;;
82288;SDS011;71889;39.264;-120.910;2024-02-14T05:30:57;31.73;;;17.73;;
82288;SDS011;71889;39.264;-120.910;2024-02-14T05:33:24;34.05;;;18.77;;
82288;SDS011;71889;39.264;-120.910;2024-02-14T05:35:51;29.48;;;15.00;;
82288;SDS011;71889;39.264;-120.910;2024-02-14T05:38:18;26.48;;;14.80;;
82288;SDS011;71889;39.264;-120.910;2024-02-14T05:40:48;24.90;;;13.48;;
82288;SDS011;71889;39.264;-120.910;2024-02-14T05:43:15;29.55;;;14.00;;
82288;SDS011;71889;39.264;-120.910;2024-02-14T05:45:43;20.90;;;11.95;;
82288;SDS011;71889;39.264;-120.910;2024-02-14T05:48:10;12.90;;;7.55;;
82288;SDS011;71889;39.264;-120.910;2024-02-14T05:50:37;10.48;;;6.18;;
82288;SDS011;71889;39.264;-120.910;2024-02-14T05:53:04;12.25;;;6.47;;
82288;SDS011;71889;39.264;-120.910;2024-02-14T05:55:31;14.85;;;8.10;;
82288;SDS011;71889;39.264;-120.910;2024-02-14T05:57:58;26.00;;;13.05;;
82288;SDS011;71889;39.264;-120.910;2024-02-14T06:00:25;45.97;;;19.15;;
82288;SDS011;71889;39.264;-120.910;2024-02-14T06:02:52;107.43;;;39.33;;
82288;SDS011;71889;39.264;-120.910;2024-02-14T06:05:19;130.82;;;49.20;;
82288;SDS011;71889;39.264;-120.910;2024-02-14T06:07:46;68.47;;;28.60;;
82288;SDS011;71889;39.264;-120.910;2024-02-14T06:10:12;69.80;;;26.67;;
82288;SDS011;71889;39.264;-120.910;2024-02-14T06:12:39;44.25;;;21.08;;
82288;SDS011;71889;39.264;-120.910;2024-02-14T06:15:06;48.75;;;21.10;;
82288;SDS011;71889;39.264;-120.910;2024-02-14T06:17:33;62.08;;;24.75;;
82288;SDS011;71889;39.264;-120.910;2024-02-14T06:20:00;80.28;;;33.72;;
82288;SDS011;71889;39.264;-120.910;2024-02-14T06:22:32;213.70;;;87.35;;
82288;SDS011;71889;39.264;-120.910;2024-02-14T06:25:00;262.20;;;105.90;;
82288;SDS011;71889;39.264;-120.910;2024-02-14T06:27:30;223.30;;;87.35;;
82288;SDS011;71889;39.264;-120.910;2024-02-14T06:29:57;167.52;;;66.97;;
82288;SDS011;71889;39.264;-120.910;2024-02-14T06:32:25;141.60;;;55.33;;
82288;SDS011;71889;39.264;-120.910;2024-02-14T06:34:52;121.35;;;45.45;;
82288;SDS011;71889;39.264;-120.910;2024-02-14T06:37:18;87.00;;;35.72;;
82288;SDS011;71889;39.264;-120.910;2024-02-14T06:39:45;45.20;;;17.58;;
82288;SDS011;71889;39.264;-120.910;2024-02-14T06:42:14;28.33;;;12.65;;
82288;SDS011;71889;39.264;-120.910;2024-02-14T06:44:41;40.20;;;16.88;;
82288;SDS011;71889;39.264;-120.910;2024-02-14T06:47:08;64.32;;;27.17;;
82288;SDS011;71889;39.264;-120.910;2024-02-14T06:49:34;85.00;;;31.95;;
82288;SDS011;71889;39.264;-120.910;2024-02-14T06:52:01;78.38;;;30.88;;
82288;SDS011;71889;39.264;-120.910;2024-02-14T06:54:28;36.90;;;14.82;;
82288;SDS011;71889;39.264;-120.910;2024-02-14T06:56:55;24.73;;;10.27;;
82288;SDS011;71889;39.264;-120.910;2024-02-14T06:59:21;30.75;;;12.90;;
82288;SDS011;71889;39.264;-120.910;2024-02-14T07:01:48;32.72;;;11.52;;
82288;SDS011;71889;39.264;-120.910;2024-02-14T07:04:15;30.65;;;13.25;;
82288;SDS011;71889;39.264;-120.910;2024-02-14T07:06:42;31.67;;;12.30;;
82288;SDS011;71889;39.264;-120.910;2024-02-14T07:09:09;26.20;;;12.48;;
82288;SDS011;71889;39.264;-120.910;2024-02-14T07:11:36;35.75;;;12.73;;
82288;SDS011;71889;39.264;-120.910;2024-02-14T07:14:03;24.83;;;10.65;;
82288;SDS011;71889;39.264;-120.910;2024-02-14T07:16:30;20.40;;;10.57;;
82288;SDS011;71889;39.264;-120.910;2024-02-14T07:18:57;23.17;;;10.75;;
82288;SDS011;71889;39.264;-120.910;2024-02-14T07:21:24;27.65;;;11.23;;
82288;SDS011;71889;39.264;-120.910;2024-02-14T07:23:50;19.95;;;8.60;;
82288;SDS011;71889;39.264;-120.910;2024-02-14T07:26:19;16.08;;;7.40;;
82288;SDS011;71889;39.264;-120.910;2024-02-14T07:28:46;13.73;;;6.45;;
82288;SDS011;71889;39.264;-120.910;2024-02-14T07:31:12;14.63;;;5.85;;
82288;SDS011;71889;39.264;-120.910;2024-02-14T07:33:39;11.65;;;4.70;;
82288;SDS011;71889;39.264;-120.910;2024-02-14T07:36:06;12.00;;;5.45;;
82288;SDS011;71889;39.264;-120.910;2024-02-14T07:38:34;10.85;;;5.85;;
82288;SDS011;71889;39.264;-120.910;2024-02-14T07:41:01;10.30;;;5.32;;
82288;SDS011;71889;39.264;-120.910;2024-02-14T07:43:28;10.50;;;5.68;;
82288;SDS011;71889;39.264;-120.910;2024-02-14T07:45:55;9.35;;;4.88;;
82288;SDS011;71889;39.264;-120.910;2024-02-14T07:48:21;11.75;;;4.65;;
82288;SDS011;71889;39.264;-120.910;2024-02-14T07:50:48;10.82;;;4.10;;
82288;SDS011;71889;39.264;-120.910;2024-02-14T07:53:14;10.20;;;4.82;;
82288;SDS011;71889;39.264;-120.910;2024-02-14T07:55:41;10.52;;;4.43;;
82288;SDS011;71889;39.264;-120.910;2024-02-14T07:58:08;9.95;;;4.00;;
82288;SDS011;71889;39.264;-120.910;2024-02-14T08:00:35;7.40;;;4.10;;
82288;SDS011;71889;39.264;-120.910;2024-02-14T08:03:02;9.18;;;4.68;;
82288;SDS011;71889;39.264;-120.910;2024-02-14T08:05:31;11.32;;;5.00;;
82288;SDS011;71889;39.264;-120.910;2024-02-14T08:07:59;9.10;;;4.47;;
82288;SDS011;71889;39.264;-120.910;2024-02-14T08:10:25;10.10;;;3.78;;
82288;SDS011;71889;39.264;-120.910;2024-02-14T08:12:52;8.05;;;3.75;;
82288;SDS011;71889;39.264;-120.910;2024-02-14T08:15:19;7.60;;;3.90;;
82288;SDS011;71889;39.264;-120.910;2024-02-14T08:17:46;6.20;;;3.78;;
82288;SDS011;71889;39.264;-120.910;2024-02-14T08:20:13;8.50;;;4.15;;
82288;SDS011;71889;39.264;-120.910;2024-02-14T08:22:39;26.50;;;11.88;;
82288;SDS011;71889;39.264;-120.910;2024-02-14T08:25:06;22.05;;;10.18;;
82288;SDS011;71889;39.264;-120.910;2024-02-14T08:27:34;18.67;;;9.10;;
82288;SDS011;71889;39.264;-120.910;2024-02-14T08:30:00;15.48;;;7.80;;
82288;SDS011;71889;39.264;-120.910;2024-02-14T08:32:27;9.18;;;4.55;;
82288;SDS011;71889;39.264;-120.910;2024-02-14T08:34:54;12.70;;;4.78;;
82288;SDS011;71889;39.264;-120.910;2024-02-14T08:37:21;10.95;;;5.68;;
82288;SDS011;71889;39.264;-120.910;2024-02-14T08:39:49;11.13;;;5.35;;
82288;SDS011;71889;39.264;-120.910;2024-02-14T08:42:16;10.63;;;4.70;;
82288;SDS011;71889;39.264;-120.910;2024-02-14T08:44:42;10.68;;;6.10;;
82288;SDS011;71889;39.264;-120.910;2024-02-14T08:47:09;14.30;;;6.97;;
82288;SDS011;71889;39.264;-120.910;2024-02-14T08:49:36;13.57;;;6.82;;
82288;SDS011;71889;39.264;-120.910;2024-02-14T08:52:03;9.32;;;5.05;;
82288;SDS011;71889;39.264;-120.910;2024-02-14T08:54:31;6.20;;;4.00;;
82288;SDS011;71889;39.264;-120.910;2024-02-14T08:56:58;6.82;;;3.85;;
82288;SDS011;71889;39.264;-120.910;2024-02-14T08:59:24;7.63;;;3.90;;
82288;SDS011;71889;39.264;-120.910;2024-02-14T09:01:51;10.88;;;4.65;;
82288;SDS011;71889;39.264;-120.910;2024-02-14T09:04:18;8.55;;;4.30;;
82288;SDS011;71889;39.264;-120.910;2024-02-14T09:06:45;8.63;;;4.18;;
82288;SDS011;71889;39.264;-120.910;2024-02-14T09:09:12;6.95;;;4.10;;
82288;SDS011;71889;39.264;-120.910;2024-02-14T09:11:39;9.10;;;3.30;;
82288;SDS011;71889;39.264;-120.910;2024-02-14T09:14:06;6.28;;;3.92;;
82288;SDS011;71889;39.264;-120.910;2024-02-14T09:16:33;6.93;;;3.45;;
82288;SDS011;71889;39.264;-120.910;2024-02-14T09:19:00;6.35;;;3.30;;
82288;SDS011;71889;39.264;-120.910;2024-02-14T09:21:27;5.30;;;3.47;;
82288;SDS011;71889;39.264;-120.910;2024-02-14T09:23:54;5.93;;;2.97;;
82288;SDS011;71889;39.264;-120.910;2024-02-14T09:26:21;4.93;;;3.10;;
82288;SDS011;71889;39.264;-120.910;2024-02-14T09:28:47;5.90;;;2.90;;
82288;SDS011;71889;39.264;-120.910;2024-02-14T09:31:18;7.00;;;2.88;;
82288;SDS011;71889;39.264;-120.910;2024-02-14T09:33:46;7.10;;;3.33;;
82288;SDS011;71889;39.264;-120.910;2024-02-14T09:36:13;8.23;;;4.63;;
82288;SDS011;71889;39.264;-120.910;2024-02-14T09:38:40;11.57;;;5.25;;
82288;SDS011;71889;39.264;-120.910;2024-02-14T09:43:42;10.77;;;6.65;;
82288;SDS011;71889;39.264;-120.910;2024-02-14T09:46:11;10.15;;;6.20;;
82288;SDS011;71889;39.264;-120.910;2024-02-14T09:48:39;10.50;;;5.10;;
82288;SDS011;71889;39.264;-120.910;2024-02-14T09:51:08;15.55;;;7.60;;
82288;SDS011;71889;39.264;-120.910;2024-02-14T09:53:35;13.55;;;8.18;;
82288;SDS011;71889;39.264;-120.910;2024-02-14T09:56:02;9.35;;;5.50;;
82288;SDS011;71889;39.264;-120.910;2024-02-14T09:58:29;14.82;;;8.63;;
82288;SDS011;71889;39.264;-120.910;2024-02-14T10:00:58;11.75;;;6.90;;
82288;SDS011;71889;39.264;-120.910;2024-02-14T10:03:25;13.27;;;6.80;;
82288;SDS011;71889;39.264;-120.910;2024-02-14T10:05:51;14.40;;;8.48;;
82288;SDS011;71889;39.264;-120.910;2024-02-14T10:08:18;29.73;;;16.02;;
82288;SDS011;71889;39.264;-120.910;2024-02-14T10:10:49;40.47;;;20.20;;
82288;SDS011;71889;39.264;-120.910;2024-02-14T10:13:15;33.42;;;18.98;;
82288;SDS011;71889;39.264;-120.910;2024-02-14T10:15:42;40.45;;;20.75;;
82288;SDS011;71889;39.264;-120.910;2024-02-14T10:18:09;26.63;;;14.57;;
82288;SDS011;71889;39.264;-120.910;2024-02-14T10:20:36;21.38;;;10.60;;
82288;SDS011;71889;39.264;-120.910;2024-02-14T10:23:10;19.70;;;10.90;;
82288;SDS011;71889;39.264;-120.910;2024-02-14T10:25:37;8.45;;;5.45;;
82288;SDS011;71889;39.264;-120.910;2024-02-14T10:28:05;10.15;;;5.65;;
82288;SDS011;71889;39.264;-120.910;2024-02-14T10:30:36;13.02;;;6.45;;
82288;SDS011;71889;39.264;-120.910;2024-02-14T10:33:07;13.90;;;6.18;;
82288;SDS011;71889;39.264;-120.910;2024-02-14T10:35:35;9.15;;;5.57;;
82288;SDS011;71889;39.264;-120.910;2024-02-14T10:38:06;9.85;;;5.35;;
82288;SDS011;71889;39.264;-120.910;2024-02-14T10:40:38;8.75;;;4.07;;
82288;SDS011;71889;39.264;-120.910;2024-02-14T10:43:08;14.15;;;4.82;;
82288;SDS011;71889;39.264;-120.910;2024-02-14T10:45:38;7.90;;;4.25;;
82288;SDS011;71889;39.264;-120.910;2024-02-14T10:48:05;13.02;;;4.28;;
82288;SDS011;71889;39.264;-120.910;2024-02-14T10:50:35;8.15;;;4.38;;
82288;SDS011;71889;39.264;-120.910;2024-02-14T10:53:05;15.07;;;4.30;;
82288;SDS011;71889;39.264;-120.910;2024-02-14T10:55:33;8.10;;;3.80;;
82288;SDS011;71889;39.264;-120.910;2024-02-14T10:58:00;6.30;;;2.50;;
82288;SDS011;71889;39.264;-120.910;2024-02-14T11:00:28;6.38;;;2.80;;
82288;SDS011;71889;39.264;-120.910;2024-02-14T11:02:55;3.58;;;2.40;;
82288;SDS011;71889;39.264;-120.910;2024-02-14T11:05:23;3.65;;;2.60;;
82288;SDS011;71889;39.264;-120.910;2024-02-14T11:07:50;4.65;;;2.30;;
82288;SDS011;71889;39.264;-120.910;2024-02-14T11:10:18;4.60;;;2.22;;
82288;SDS011;71889;39.264;-120.910;2024-02-14T11:12:46;4.63;;;2.67;;
82288;SDS011;71889;39.264;-120.910;2024-02-14T11:15:19;3.70;;;2.15;;
82288;SDS011;71889;39.264;-120.910;2024-02-14T11:17:46;6.53;;;3.10;;
82288;SDS011;71889;39.264;-120.910;2024-02-14T11:20:32;7.75;;;3.35;;
82288;SDS011;71889;39.264;-120.910;2024-02-14T11:23:06;4.28;;;2.00;;
82288;SDS011;71889;39.264;-120.910;2024-02-14T11:25:39;9.52;;;4.45;;
82288;SDS011;71889;39.264;-120.910;2024-02-14T11:28:15;11.52;;;4.18;;
82288;SDS011;71889;39.264;-120.910;2024-02-14T11:30:42;8.13;;;3.30;;
82288;SDS011;71889;39.264;-120.910;2024-02-14T11:33:13;2.88;;;2.08;;
82288;SDS011;71889;39.264;-120.910;2024-02-14T11:35:40;3.35;;;1.55;;
82288;SDS011;71889;39.264;-120.910;2024-02-14T11:38:10;3.40;;;1.98;;
82288;SDS011;71889;39.264;-120.910;2024-02-14T11:40:38;3.47;;;1.90;;
82288;SDS011;71889;39.264;-120.910;2024-02-14T11:43:07;2.28;;;1.30;;
82288;SDS011;71889;39.264;-120.910;2024-02-14T11:45:36;4.40;;;2.15;;
82288;SDS011;71889;39.264;-120.910;2024-02-14T11:48:10;3.47;;;1.77;;
82288;SDS011;71889;39.264;-120.910;2024-02-14T11:50:40;4.95;;;1.83;;
82288;SDS011;71889;39.264;-120.910;2024-02-14T11:53:09;5.22;;;1.90;;
82288;SDS011;71889;39.264;-120.910;2024-02-14T11:55:37;3.03;;;1.52;;
82288;SDS011;71889;39.264;-120.910;2024-02-14T11:58:10;3.60;;;1.38;;
82288;SDS011;71889;39.264;-120.910;2024-02-14T12:00:38;2.00;;;1.27;;
82288;SDS011;71889;39.264;-120.910;2024-02-14T12:03:24;4.57;;;1.48;;
82288;SDS011;71889;39.264;-120.910;2024-02-14T12:05:51;2.50;;;1.70;;
82288;SDS011;71889;39.264;-120.910;2024-02-14T12:08:19;2.78;;;1.80;;
82288;SDS011;71889;39.264;-120.910;2024-02-14T12:10:46;5.28;;;3.38;;
82288;SDS011;71889;39.264;-120.910;2024-02-14T12:13:15;3.95;;;2.50;;
82288;SDS011;71889;39.264;-120.910;2024-02-14T12:15:46;3.38;;;2.28;;
82288;SDS011;71889;39.264;-120.910;2024-02-14T12:18:12;2.90;;;1.73;;
82288;SDS011;71889;39.264;-120.910;2024-02-14T12:20:39;3.20;;;1.75;;
82288;SDS011;71889;39.264;-120.910;2024-02-14T12:23:06;2.90;;;1.60;;
82288;SDS011;71889;39.264;-120.910;2024-02-14T12:25:33;4.18;;;1.33;;
82288;SDS011;71889;39.264;-120.910;2024-02-14T12:28:00;6.35;;;2.17;;
82288;SDS011;71889;39.264;-120.910;2024-02-14T12:30:46;3.97;;;1.90;;
82288;SDS011;71889;39.264;-120.910;2024-02-14T12:33:17;2.05;;;1.25;;
82288;SDS011;71889;39.264;-120.910;2024-02-14T12:35:44;2.88;;;1.38;;
82288;SDS011;71889;39.264;-120.910;2024-02-14T12:38:12;1.77;;;1.50;;
82288;SDS011;71889;39.264;-120.910;2024-02-14T12:40:39;12.80;;;5.20;;
82288;SDS011;71889;39.264;-120.910;2024-02-14T12:43:13;3.03;;;1.75;;
82288;SDS011;71889;39.264;-120.910;2024-02-14T12:45:41;3.63;;;1.50;;
82288;SDS011;71889;39.264;-120.910;2024-02-14T12:48:09;3.08;;;1.40;;
82288;SDS011;71889;39.264;-120.910;2024-02-14T12:50:37;5.10;;;2.08;;
82288;SDS011;71889;39.264;-120.910;2024-02-14T12:53:04;4.35;;;2.10;;
82288;SDS011;71889;39.264;-120.910;2024-02-14T12:55:31;5.15;;;2.58;;
82288;SDS011;71889;39.264;-120.910;2024-02-14T12:57:58;20.98;;;8.95;;
82288;SDS011;71889;39.264;-120.910;2024-02-14T13:00:26;14.93;;;7.03;;
82288;SDS011;71889;39.264;-120.910;2024-02-14T13:02:52;4.32;;;2.60;;
82288;SDS011;71889;39.264;-120.910;2024-02-14T13:05:19;65.13;;;29.80;;
82288;SDS011;71889;39.264;-120.910;2024-02-14T13:07:46;15.77;;;7.28;;
82288;SDS011;71889;39.264;-120.910;2024-02-14T13:10:13;11.77;;;5.50;;
82288;SDS011;71889;39.264;-120.910;2024-02-14T13:12:40;6.07;;;3.67;;
82288;SDS011;71889;39.264;-120.910;2024-02-14T13:15:09;5.82;;;2.97;;
82288;SDS011;71889;39.264;-120.910;2024-02-14T13:17:35;4.75;;;2.60;;
82288;SDS011;71889;39.264;-120.910;2024-02-14T13:20:02;8.27;;;3.90;;
82288;SDS011;71889;39.264;-120.910;2024-02-14T13:22:29;7.53;;;3.63;;
82288;SDS011;71889;39.264;-120.910;2024-02-14T13:24:56;7.82;;;3.97;;
82288;SDS011;71889;39.264;-120.910;2024-02-14T13:27:22;7.35;;;3.47;;
82288;SDS011;71889;39.264;-120.910;2024-02-14T13:29:49;4.40;;;2.35;;
82288;SDS011;71889;39.264;-120.910;2024-02-14T13:32:16;6.65;;;3.53;;
82288;SDS011;71889;39.264;-120.910;2024-02-14T13:34:43;6.07;;;2.92;;
82288;SDS011;71889;39.264;-120.910;2024-02-14T13:37:10;7.70;;;4.00;;
82288;SDS011;71889;39.264;-120.910;2024-02-14T13:39:37;9.90;;;5.38;;
82288;SDS011;71889;39.264;-120.910;2024-02-14T13:42:04;8.77;;;4.50;;
82288;SDS011;71889;39.264;-120.910;2024-02-14T13:44:31;8.45;;;3.75;;
82288;SDS011;71889;39.264;-120.910;2024-02-14T13:46:58;5.22;;;3.10;;
82288;SDS011;71889;39.264;-120.910;2024-02-14T13:49:25;6.07;;;3.15;;
82288;SDS011;71889;39.264;-120.910;2024-02-14T13:51:52;7.68;;;3.03;;
82288;SDS011;71889;39.264;-120.910;2024-02-14T13:54:19;6.95;;;3.40;;
82288;SDS011;71889;39.264;-120.910;2024-02-14T13:56:46;6.85;;;3.38;;
82288;SDS011;71889;39.264;-120.910;2024-02-14T13:59:16;5.93;;;3.65;;
82288;SDS011;71889;39.264;-120.910;2024-02-14T14:01:44;9.00;;;4.07;;